Time;durP1;ratioP1;P1;durP2;ratioP2;P2;SDS_P1;SDS_P2;PMS_P1;PMS_P2;Temp;Humidity;BMP_temperature;BMP_pressure;BME280_temperature;BME280_humidity;BME280_pressure;Samples;Min_cycle;Max_cycle;Signal;HPM_P1;HPM_P2
2021/12/05 00:24:36;;;;;;;11.95;4.82;;;3.90;99.90;;;;;;5007649;28;20042;-96
2021/12/05 00:27:24;;;;;;;12.25;4.93;;;4.00;99.90;;;;;;4990419;28;20046;-94
2021/12/05 00:32:26;;;;;;;22.58;14.98;;;4.00;99.90;;;;;;5016472;28;20025;-95
2021/12/05 00:35:30;;;;;;;11.95;4.40;;;4.00;99.90;;;;;;4994613;28;20056;-95
2021/12/05 00:41:00;;;;;;;8.38;4.10;;;4.10;99.90;;;;;;5016806;28;20065;-95
2021/12/05 00:49:34;;;;;;;7.13;3.45;;;4.10;99.90;;;;;;4962751;28;20050;-95
2021/12/05 00:52:41;;;;;;;13.18;3.60;;;4.10;99.90;;;;;;4988966;28;20068;-96
2021/12/05 01:00:33;;;;;;;8.95;3.38;;;4.40;99.90;;;;;;5003278;28;20108;-96
2021/12/05 01:08:20;;;;;;;9.95;3.58;;;4.20;99.90;;;;;;5012341;28;20058;-95
2021/12/05 01:16:36;;;;;;;15.52;9.88;;;4.10;99.90;;;;;;5006291;28;20065;-96
2021/12/05 01:19:02;;;;;;;9.57;3.05;;;4.30;99.90;;;;;;4990589;28;20475;-96
2021/12/05 01:21:29;;;;;;;9.40;3.20;;;4.20;99.90;;;;;;4991873;28;20080;-94
2021/12/05 01:26:48;;;;;;;7.68;3.35;;;4.20;99.90;;;;;;5009431;28;20069;-94
2021/12/05 01:35:07;;;;;;;9.00;3.35;;;4.10;99.90;;;;;;5003085;28;20573;-95
2021/12/05 01:49:03;;;;;;;14.48;4.13;;;4.30;99.90;;;;;;4923513;29;20118;-95
2021/12/05 01:57:08;;;;;;;9.90;3.97;;;4.40;99.90;;;;;;4923844;29;20056;-94
2021/12/05 02:10:54;;;;;;;9.90;3.42;;;4.40;99.90;;;;;;4918681;29;20052;-94
2021/12/05 02:16:25;;;;;;;14.63;5.78;;;4.50;99.90;;;;;;4921723;29;20048;-95
2021/12/05 02:43:10;;;;;;;15.68;7.15;;;4.50;99.90;;;;;;4995683;28;20058;-95
2021/12/05 02:45:41;;;;;;;17.58;6.60;;;4.50;99.90;;;;;;4989091;28;20030;-96
2021/12/05 02:48:08;;;;;;;;;;;4.50;99.90;;;;;;4991621;28;20046;-95
2021/12/05 02:50:35;;;;;;;15.10;6.82;;;4.40;99.90;;;;;;4985224;28;19917;-96
2021/12/05 02:53:11;;;;;;;13.50;6.53;;;4.40;99.90;;;;;;5006597;28;20117;-96
2021/12/05 02:55:45;;;;;;;12.95;6.75;;;4.30;99.90;;;;;;4978044;28;20073;-95
2021/12/05 02:58:28;;;;;;;19.02;7.78;;;4.40;99.90;;;;;;4991640;28;20045;-95
2021/12/05 03:03:34;;;;;;;16.45;7.30;;;4.60;99.90;;;;;;5007779;28;20053;-94
2021/12/05 03:06:11;;;;;;;29.50;21.58;;;4.40;99.90;;;;;;4995522;28;20357;-94
2021/12/05 03:08:46;;;;;;;15.38;6.63;;;4.50;99.90;;;;;;4997252;28;20026;-95
2021/12/05 03:11:13;;;;;;;17.88;7.80;;;4.50;99.90;;;;;;4999623;28;20026;-96
2021/12/05 03:13:42;;;;;;;30.33;21.30;;;4.50;99.90;;;;;;4998083;28;20116;-95
2021/12/05 03:16:10;;;;;;;16.98;6.57;;;4.50;99.90;;;;;;4994952;28;20053;-96
2021/12/05 03:18:37;;;;;;;20.55;7.65;;;4.50;99.90;;;;;;4992534;28;20136;-94
2021/12/05 03:21:04;;;;;;;19.52;7.10;;;4.40;99.90;;;;;;4979121;28;20367;-95
2021/12/05 03:23:40;;;;;;;14.10;6.43;;;4.40;99.90;;;;;;4977600;28;20050;-95
2021/12/05 03:26:07;;;;;;;15.35;6.65;;;4.40;99.90;;;;;;4975629;28;20504;-95
2021/12/05 03:28:33;;;;;;;30.23;19.65;;;4.50;99.90;;;;;;4986450;28;20054;-95
2021/12/05 03:31:05;;;;;;;16.95;6.50;;;4.40;99.90;;;;;;4998491;28;20045;-95
2021/12/05 03:33:31;;;;;;;18.40;6.38;;;4.50;99.90;;;;;;4976931;28;20132;-95
2021/12/05 03:35:58;;;;;;;13.55;6.82;;;4.40;99.90;;;;;;5001674;28;20088;-94
2021/12/05 03:38:24;;;;;;;16.35;6.40;;;4.40;99.90;;;;;;4978628;28;20049;-96
2021/12/05 03:40:55;;;;;;;18.95;7.20;;;4.40;99.90;;;;;;4983588;28;20128;-93
2021/12/05 03:43:21;;;;;;;18.30;6.60;;;4.40;99.90;;;;;;4960296;28;20053;-94
2021/12/05 03:45:52;;;;;;;13.30;6.22;;;4.30;99.90;;;;;;4977510;28;20387;-95
2021/12/05 03:48:19;;;;;;;29.65;18.40;;;4.30;99.90;;;;;;4978986;28;20042;-94
2021/12/05 03:50:45;;;;;;;16.10;6.20;;;4.30;99.90;;;;;;4978026;28;20075;-96
2021/12/05 03:53:12;;;;;;;16.85;6.80;;;4.40;99.90;;;;;;4977003;28;20060;-95
2021/12/05 03:55:43;;;;;;;26.70;16.02;;;4.40;99.90;;;;;;5006719;28;20049;-96
2021/12/05 03:58:09;;;;;;;15.02;5.35;;;4.40;99.90;;;;;;4975492;28;20042;-95
2021/12/05 04:00:39;;;;;;;12.30;5.90;;;4.40;99.90;;;;;;4992454;28;20058;-95
2021/12/05 04:03:08;;;;;;;13.63;6.20;;;4.30;99.90;;;;;;4977649;28;20038;-96
2021/12/05 04:05:37;;;;;;;12.75;5.70;;;4.30;99.90;;;;;;4978138;28;20046;-95
2021/12/05 04:08:06;;;;;;;14.82;6.43;;;4.30;99.90;;;;;;5007826;28;20049;-96
2021/12/05 04:10:48;;;;;;;12.07;5.82;;;4.30;99.90;;;;;;4983930;28;20026;-96
2021/12/05 04:13:15;;;;;;;11.40;5.22;;;4.30;99.90;;;;;;4980607;28;20066;-94
2021/12/05 04:15:41;;;;;;;15.20;5.82;;;4.20;99.90;;;;;;4971788;28;20054;-95
2021/12/05 04:18:07;;;;;;;11.98;5.13;;;4.30;99.90;;;;;;4983412;28;20106;-96
2021/12/05 04:20:33;;;;;;;13.52;5.25;;;4.20;99.90;;;;;;4982223;28;20100;-96
2021/12/05 04:22:59;;;;;;;23.15;14.48;;;4.30;99.90;;;;;;4981405;28;20042;-95
2021/12/05 04:25:28;;;;;;;11.65;5.22;;;4.20;99.90;;;;;;4995515;28;20043;-95
2021/12/05 04:27:56;;;;;;;13.80;5.20;;;4.20;99.90;;;;;;4981858;28;20149;-95
2021/12/05 04:30:24;;;;;;;16.27;5.38;;;4.30;99.90;;;;;;4980245;28;20392;-95
2021/12/05 04:32:50;;;;;;;21.73;13.88;;;4.20;99.90;;;;;;5004785;28;20387;-95
2021/12/05 04:35:16;;;;;;;15.35;5.68;;;4.20;99.90;;;;;;4994695;28;20081;-96
2021/12/05 04:37:42;;;;;;;13.23;4.55;;;4.20;99.90;;;;;;5018601;28;20033;-95
2021/12/05 04:40:15;;;;;;;10.63;4.80;;;4.10;99.90;;;;;;4988120;28;20046;-96
2021/12/05 04:42:42;;;;;;;13.60;4.03;;;4.10;99.90;;;;;;5013518;28;20443;-94
2021/12/05 04:45:14;;;;;;;11.50;4.75;;;4.00;99.90;;;;;;4986525;28;20038;-93
2021/12/05 04:47:41;;;;;;;12.02;4.13;;;4.00;99.90;;;;;;4982614;28;20121;-95
2021/12/05 04:50:08;;;;;;;10.07;4.93;;;4.00;99.90;;;;;;4987642;28;20066;-96
2021/12/05 04:52:34;;;;;;;11.68;3.97;;;3.90;99.90;;;;;;4989583;28;20061;-96
2021/12/05 04:55:10;;;;;;;16.48;5.45;;;3.90;99.90;;;;;;4987263;28;20046;-95
2021/12/05 04:57:37;;;;;;;12.38;4.60;;;3.90;99.90;;;;;;4983647;28;20043;-94
2021/12/05 05:00:08;;;;;;;22.15;13.15;;;3.90;99.90;;;;;;4973939;28;20073;-95
2021/12/05 05:02:33;;;;;;;10.93;4.32;;;3.90;99.90;;;;;;4975525;28;20104;-94
2021/12/05 05:04:59;;;;;;;14.65;4.93;;;3.80;99.90;;;;;;4979234;28;20038;-95
2021/12/05 05:07:27;;;;;;;9.85;4.20;;;3.70;99.90;;;;;;4975969;28;20065;-95
2021/12/05 05:09:57;;;;;;;10.75;4.25;;;3.70;99.90;;;;;;4992473;28;20232;-95
2021/12/05 05:12:23;;;;;;;11.25;4.00;;;3.70;99.90;;;;;;4986381;28;20042;-96
2021/12/05 05:14:50;;;;;;;12.35;4.43;;;3.70;99.90;;;;;;4997712;28;20072;-95
2021/12/05 05:17:16;;;;;;;10.52;4.22;;;3.60;99.90;;;;;;4998550;28;20101;-96
2021/12/05 05:19:48;;;;;;;13.13;4.35;;;3.70;99.90;;;;;;4978635;28;20105;-95
2021/12/05 05:46:39;;;;;;;8.23;3.67;;;3.50;99.90;;;;;;5011970;28;20044;-95
2021/12/05 05:49:15;;;;;;;11.80;4.20;;;3.40;99.90;;;;;;4994103;28;20060;-95
2021/12/05 05:51:42;;;;;;;11.35;4.57;;;3.40;99.90;;;;;;4983200;28;20403;-94
2021/12/05 05:54:33;;;;;;;9.80;3.65;;;3.30;99.90;;;;;;5010317;28;20038;-95
2021/12/05 05:57:10;;;;;;;10.52;4.25;;;3.30;99.90;;;;;;4981838;28;20465;-94
2021/12/05 06:00:13;;;;;;;8.35;3.42;;;3.30;99.90;;;;;;5006029;28;20086;-95
2021/12/05 06:05:14;;;;;;;9.70;3.80;;;3.30;99.90;;;;;;5006536;28;20055;-95
2021/12/05 06:07:44;;;;;;;13.43;4.22;;;3.20;99.90;;;;;;4993917;28;20038;-95
2021/12/05 06:10:25;;;;;;;12.07;4.88;;;3.20;99.90;;;;;;4992819;28;20125;-96
2021/12/05 06:12:51;;;;;;;11.05;3.63;;;3.30;99.90;;;;;;4996247;28;20050;-95
2021/12/05 06:28:16;;;;;;;15.32;4.53;;;3.30;99.90;;;;;;5442743;23;20065;-96
2021/12/05 06:39:59;;;;;;;13.55;4.55;;;3.50;99.90;;;;;;5040682;28;20029;-96
2021/12/05 06:47:54;;;;;;;9.20;3.55;;;3.50;99.90;;;;;;5055479;28;19928;-96
2021/12/05 06:50:26;;;;;;;14.77;4.55;;;3.50;99.90;;;;;;5401189;23;20042;-96
2021/12/05 06:52:52;;;;;;;13.52;4.13;;;3.70;99.90;;;;;;5038221;28;20102;-96
2021/12/05 07:06:27;;;;;;;24.23;12.90;;;3.60;99.90;;;;;;5031664;28;20034;-96
2021/12/05 07:08:57;;;;;;;15.88;4.70;;;3.70;99.90;;;;;;4999666;28;20057;-96
2021/12/05 07:12:23;;;;;;;11.02;3.97;;;3.70;99.90;;;;;;4997357;28;20393;-96
2021/12/05 08:17:19;;;;;;;12.95;4.90;;;4.10;99.90;;;;;;5007106;28;20031;-95
2021/12/05 08:19:46;;;;;;;20.65;13.40;;;4.10;99.90;;;;;;4971959;28;20479;-93
2021/12/05 08:22:11;;;;;;;11.32;4.47;;;4.20;99.90;;;;;;4953326;28;20136;-96
2021/12/05 08:24:40;;;;;;;11.73;4.50;;;4.20;99.90;;;;;;4972780;28;20105;-95
2021/12/05 08:27:10;;;;;;;11.37;4.27;;;4.20;99.90;;;;;;4993835;28;20117;-96
2021/12/05 08:29:48;;;;;;;13.88;5.70;;;4.20;99.90;;;;;;4983585;28;20079;-94
2021/12/05 08:32:38;;;;;;;13.98;5.25;;;4.30;99.90;;;;;;4976882;28;20046;-95
2021/12/05 08:35:43;;;;;;;11.88;4.78;;;4.30;99.90;;;;;;4990750;28;20046;-94
2021/12/05 08:44:25;;;;;;;17.60;5.68;;;4.50;99.90;;;;;;5123325;23;20050;-94
2021/12/05 12:34:19;;;;;;;11.73;7.30;;;6.40;99.90;;;;;;4942586;28;20058;-95
2021/12/05 12:36:50;;;;;;;7.63;3.28;;;6.30;99.90;;;;;;4925851;29;20043;-95
2021/12/05 12:39:16;;;;;;;11.48;7.18;;;6.30;99.90;;;;;;4925477;29;20054;-95
2021/12/05 12:42:33;;;;;;;11.68;7.50;;;6.20;99.90;;;;;;4932680;29;20051;-95
2021/12/05 12:45:01;;;;;;;10.73;3.78;;;6.30;99.90;;;;;;4920974;29;20072;-95
2021/12/05 12:47:33;;;;;;;8.13;3.22;;;6.20;99.90;;;;;;4912440;29;20043;-95
2021/12/05 12:50:20;;;;;;;12.52;7.70;;;6.00;99.90;;;;;;4929797;29;20075;-95
2021/12/05 12:53:14;;;;;;;11.38;7.15;;;6.20;99.90;;;;;;4930662;29;20057;-96
2021/12/05 12:55:54;;;;;;;9.57;3.35;;;6.20;99.90;;;;;;4943917;29;20043;-94
2021/12/05 12:58:48;;;;;;;10.50;7.20;;;6.10;99.90;;;;;;4914874;29;20040;-95
2021/12/05 13:04:49;;;;;;;8.20;3.38;;;6.10;99.90;;;;;;4916708;29;20168;-94
2021/12/05 13:13:16;;;;;;;11.07;7.07;;;6.10;99.90;;;;;;4931644;29;20049;-94
2021/12/05 13:15:52;;;;;;;7.63;3.28;;;6.10;99.90;;;;;;4902931;29;20054;-92
2021/12/05 13:18:40;;;;;;;9.82;6.50;;;6.10;99.90;;;;;;4912715;29;20044;-95
2021/12/05 13:21:38;;;;;;;12.15;7.22;;;6.10;99.90;;;;;;4974478;28;20023;-94
2021/12/05 13:24:27;;;;;;;6.80;2.40;;;6.10;99.90;;;;;;4932591;29;20047;-93
2021/12/05 13:27:25;;;;;;;8.63;3.22;;;6.00;99.90;;;;;;4959190;28;20027;-94
2021/12/05 13:29:53;;;;;;;11.30;7.47;;;6.00;99.90;;;;;;4942664;28;20054;-95
2021/12/05 13:32:25;;;;;;;8.55;3.10;;;6.00;99.90;;;;;;4926950;29;20448;-93
2021/12/05 13:34:59;;;;;;;11.18;7.30;;;6.00;99.90;;;;;;4918499;29;20047;-95
2021/12/05 13:37:26;;;;;;;8.52;3.20;;;6.10;99.90;;;;;;4919506;29;20043;-94
2021/12/05 13:40:18;;;;;;;9.93;7.07;;;6.00;99.90;;;;;;4917804;29;20299;-95
2021/12/05 13:42:53;;;;;;;11.65;7.80;;;6.10;99.90;;;;;;4932276;29;20098;-94
2021/12/05 13:45:27;;;;;;;11.10;7.88;;;6.10;99.90;;;;;;4925237;29;20047;-93
2021/12/05 13:47:53;;;;;;;8.13;3.40;;;6.10;99.90;;;;;;4934883;29;20043;-94
2021/12/05 13:50:18;;;;;;;12.02;8.45;;;6.00;99.90;;;;;;4924143;29;20058;-94
2021/12/05 13:52:53;;;;;;;12.30;8.77;;;6.00;99.90;;;;;;4944743;28;20047;-95
2021/12/05 13:55:42;;;;;;;10.82;4.25;;;6.10;99.90;;;;;;4920041;29;20051;-95
2021/12/05 13:58:46;;;;;;;13.52;8.93;;;6.00;99.90;;;;;;4916254;29;20071;-95
2021/12/05 14:01:45;;;;;;;10.93;8.02;;;6.00;99.90;;;;;;4929015;29;20130;-95
2021/12/05 14:04:10;;;;;;;7.80;3.30;;;6.10;99.90;;;;;;4912643;29;20111;-95
2021/12/05 14:30:41;;;;;;;11.23;7.95;;;5.90;99.90;;;;;;4980613;28;20055;-95
2021/12/05 14:33:07;;;;;;;9.77;7.32;;;5.80;99.90;;;;;;4959596;28;20074;-95
2021/12/05 14:35:37;;;;;;;7.53;3.28;;;5.90;99.90;;;;;;4953834;28;20046;-95
2021/12/05 14:38:06;;;;;;;7.10;3.10;;;5.80;99.90;;;;;;4945958;28;20055;-96
2021/12/05 14:40:34;;;;;;;10.68;7.97;;;5.70;99.90;;;;;;4971261;28;20055;-95
2021/12/05 14:43:19;;;;;;;6.95;2.90;;;5.60;99.90;;;;;;4945305;28;20114;-96
2021/12/05 14:48:21;;;;;;;10.13;3.47;;;5.70;99.90;;;;;;5571361;22;20061;-96
2021/12/05 14:50:52;;;;;;;9.20;3.65;;;5.70;99.90;;;;;;5318607;23;20084;-96
2021/12/05 14:58:30;;;;;;;12.25;8.75;;;5.60;99.90;;;;;;5349807;23;19905;-96
2021/12/05 15:00:58;;;;;;;12.70;8.95;;;5.50;99.90;;;;;;5239090;23;20050;-96
2021/12/05 15:03:28;;;;;;;10.13;4.10;;;5.60;99.90;;;;;;4972516;28;20177;-96
2021/12/05 15:05:57;;;;;;;8.65;3.95;;;5.60;99.90;;;;;;4971301;28;20062;-95
2021/12/05 15:08:28;;;;;;;12.82;8.80;;;5.50;99.90;;;;;;4966273;28;20031;-96
2021/12/05 15:11:00;;;;;;;8.57;3.40;;;5.50;99.90;;;;;;4969912;28;20061;-96
2021/12/05 15:13:26;;;;;;;10.18;3.80;;;5.60;99.90;;;;;;4968740;28;20054;-96
2021/12/05 15:15:52;;;;;;;13.40;9.68;;;5.70;99.90;;;;;;4967141;28;20106;-96
2021/12/05 15:18:22;;;;;;;14.27;9.57;;;5.50;99.90;;;;;;4962045;28;20030;-95
2021/12/05 15:23:29;;;;;;;12.05;4.15;;;5.60;99.90;;;;;;5134745;23;20053;-96
2021/12/05 15:34:42;;;;;;;11.10;3.70;;;5.30;99.90;;;;;;5234864;22;20057;-94
2021/12/05 15:37:11;;;;;;;12.85;9.07;;;5.30;99.90;;;;;;4996926;28;20486;-95
2021/12/05 15:39:42;;;;;;;12.73;9.38;;;5.30;99.90;;;;;;5010945;28;20049;-94
2021/12/05 15:42:26;;;;;;;;;;;5.40;99.90;;;;;;5020478;28;20048;-94
2021/12/05 15:44:56;;;;;;;12.75;9.48;;;5.30;99.90;;;;;;4993633;28;20232;-94
2021/12/05 15:47:30;;;;;;;9.50;4.07;;;5.40;99.90;;;;;;4995527;28;20128;-95
2021/12/05 15:50:06;;;;;;;8.75;3.90;;;5.30;99.90;;;;;;5013958;28;20060;-94
2021/12/05 15:52:47;;;;;;;10.23;3.65;;;5.30;99.90;;;;;;5001388;28;20051;-94
2021/12/05 15:55:16;;;;;;;12.13;9.35;;;5.20;99.90;;;;;;5019102;28;20093;-94
2021/12/05 15:57:45;;;;;;;9.35;3.65;;;5.30;99.90;;;;;;5016136;28;20055;-94
2021/12/05 16:00:24;;;;;;;15.32;10.00;;;5.30;99.90;;;;;;5032054;28;20089;-94
2021/12/05 16:03:05;;;;;;;12.63;9.23;;;5.30;99.90;;;;;;5017351;28;20052;-94
2021/12/05 16:05:32;;;;;;;9.88;3.58;;;5.40;99.90;;;;;;5017039;28;20122;-94
2021/12/05 16:08:07;;;;;;;7.47;2.92;;;5.30;99.90;;;;;;5004239;28;20095;-95
2021/12/05 16:10:35;;;;;;;11.90;9.15;;;5.30;99.90;;;;;;4991694;28;20128;-95
2021/12/05 16:13:41;;;;;;;9.00;3.63;;;5.30;99.90;;;;;;4996647;28;20049;-95
2021/12/05 16:16:11;;;;;;;15.98;9.18;;;5.30;99.90;;;;;;5003096;28;20053;-95
2021/12/05 16:18:39;;;;;;;8.50;3.25;;;5.30;99.90;;;;;;4991629;28;20038;-95
2021/12/05 16:21:36;;;;;;;8.77;3.78;;;5.30;99.90;;;;;;4995027;28;20505;-96
2021/12/05 16:24:09;;;;;;;9.77;3.80;;;5.20;99.90;;;;;;4974653;28;20056;-94
2021/12/05 16:26:36;;;;;;;13.07;10.32;;;5.20;99.90;;;;;;5012956;28;20047;-96
2021/12/05 16:29:20;;;;;;;10.27;3.58;;;5.20;99.90;;;;;;4998112;28;20068;-96
2021/12/05 16:31:57;;;;;;;10.13;3.42;;;5.20;99.90;;;;;;4995452;28;20042;-95
2021/12/05 16:34:32;;;;;;;12.98;9.68;;;5.20;99.90;;;;;;4998085;28;20088;-94
2021/12/05 16:47:23;;;;;;;8.82;3.28;;;5.30;99.90;;;;;;5023675;28;20050;-94
2021/12/05 16:49:51;;;;;;;9.57;4.45;;;5.30;99.90;;;;;;5010818;23;20410;-92
2021/12/05 16:52:31;;;;;;;11.07;4.88;;;5.20;99.90;;;;;;4969019;28;20042;-92
2021/12/05 16:55:16;;;;;;;18.65;14.18;;;5.20;99.90;;;;;;4980356;28;20129;-92
2021/12/05 16:57:57;;;;;;;13.30;7.43;;;5.20;99.90;;;;;;4999581;28;20038;-92
2021/12/05 17:00:27;;;;;;;17.27;8.80;;;5.20;99.90;;;;;;4963675;28;20034;-92
2021/12/05 17:03:00;;;;;;;17.40;7.97;;;5.20;99.90;;;;;;4967857;28;20069;-92
2021/12/05 17:05:33;;;;;;;28.05;25.00;;;5.20;99.90;;;;;;4967367;28;20100;-92
2021/12/05 17:08:12;;;;;;;18.77;8.65;;;5.20;99.90;;;;;;4963760;28;20042;-92
2021/12/05 17:10:50;;;;;;;21.60;17.17;;;5.30;99.90;;;;;;4969718;28;20054;-90
2021/12/05 17:13:35;;;;;;;15.90;6.63;;;5.20;99.90;;;;;;4957729;28;20061;-89
2021/12/05 17:16:05;;;;;;;12.30;5.97;;;5.20;99.90;;;;;;4970699;28;20043;-93
2021/12/05 17:18:36;;;;;;;14.30;6.13;;;5.20;99.90;;;;;;4973655;28;20038;-90
2021/12/05 17:21:21;;;;;;;23.42;17.88;;;5.20;99.90;;;;;;4968568;28;20043;-93
2021/12/05 17:23:53;;;;;;;25.85;18.38;;;5.20;99.90;;;;;;4959620;28;20054;-91
2021/12/05 17:26:47;;;;;;;16.65;6.38;;;5.20;99.90;;;;;;4969586;28;20088;-89
2021/12/05 17:29:23;;;;;;;20.10;8.98;;;5.20;99.90;;;;;;4957962;28;20045;-90
2021/12/05 17:31:57;;;;;;;33.97;15.20;;;5.20;99.90;;;;;;4967782;28;20038;-92
2021/12/05 17:34:44;;;;;;;25.33;10.45;;;5.20;99.90;;;;;;4977599;28;20109;-90
2021/12/05 17:37:13;;;;;;;32.13;14.77;;;5.20;99.90;;;;;;4964655;28;20088;-94
2021/12/05 17:39:42;;;;;;;43.63;34.95;;;5.10;99.90;;;;;;4985918;28;20038;-93
2021/12/05 17:42:14;;;;;;;24.17;9.18;;;5.20;99.90;;;;;;4973070;28;20049;-96
2021/12/05 17:44:41;;;;;;;17.48;8.68;;;5.20;99.90;;;;;;4970622;28;20054;-94
2021/12/05 17:47:10;;;;;;;17.95;10.55;;;5.20;99.90;;;;;;4969333;28;20045;-91
2021/12/05 17:49:38;;;;;;;29.08;22.98;;;5.20;99.90;;;;;;4971141;28;20066;-90
2021/12/05 17:52:06;;;;;;;31.88;23.67;;;5.20;99.90;;;;;;4970499;28;20070;-92
2021/12/05 17:54:49;;;;;;;17.70;8.98;;;5.20;99.90;;;;;;4971803;28;20053;-90
2021/12/05 17:57:19;;;;;;;17.63;8.63;;;5.20;99.90;;;;;;4966169;28;20054;-93
2021/12/05 18:05:14;;;;;;;27.75;13.40;;;5.20;99.90;;;;;;4974647;28;20121;-91
2021/12/05 18:07:41;;;;;;;35.92;30.77;;;5.20;99.90;;;;;;4976435;28;20050;-90
2021/12/05 18:10:08;;;;;;;19.30;10.13;;;5.20;99.90;;;;;;4986238;28;20057;-93
2021/12/05 18:12:44;;;;;;;22.38;9.57;;;5.20;99.90;;;;;;4984122;28;20050;-93
2021/12/05 18:15:24;;;;;;;32.53;26.45;;;5.20;99.90;;;;;;4967098;28;20074;-92
2021/12/05 18:17:49;;;;;;;20.63;11.15;;;5.20;99.90;;;;;;4978928;28;20034;-92
2021/12/05 18:20:19;;;;;;;25.23;11.98;;;5.20;99.90;;;;;;4981478;28;20061;-94
2021/12/05 18:22:46;;;;;;;23.42;11.10;;;5.20;99.90;;;;;;4972966;28;20058;-95
2021/12/05 18:25:12;;;;;;;28.65;13.65;;;5.20;99.90;;;;;;4974980;28;20092;-94
2021/12/05 18:27:48;;;;;;;42.72;30.73;;;5.10;99.90;;;;;;4975684;28;20047;-94
2021/12/05 18:30:16;;;;;;;41.83;31.15;;;5.10;99.90;;;;;;4972854;28;20096;-94
2021/12/05 18:32:43;;;;;;;28.05;13.55;;;5.20;99.90;;;;;;4976191;28;20057;-95
2021/12/05 18:35:11;;;;;;;26.60;11.82;;;5.20;99.90;;;;;;4962243;28;20409;-95
2021/12/05 18:37:37;;;;;;;29.52;15.43;;;5.20;99.90;;;;;;4974527;28;20224;-95
2021/12/05 18:40:04;;;;;;;43.90;34.33;;;5.20;99.90;;;;;;4979521;28;20059;-95
2021/12/05 18:42:30;;;;;;;29.58;14.35;;;5.30;99.90;;;;;;4981237;28;20094;-94
2021/12/05 18:45:04;;;;;;;29.25;15.25;;;5.20;99.90;;;;;;4979659;28;20042;-95
2021/12/05 18:47:32;;;;;;;26.83;14.15;;;5.20;99.90;;;;;;4977835;28;20278;-95
2021/12/05 18:50:08;;;;;;;28.45;13.23;;;5.10;99.90;;;;;;4974618;28;20050;-94
2021/12/05 18:52:35;;;;;;;44.63;33.03;;;5.10;99.90;;;;;;4971106;28;20050;-94
2021/12/05 18:55:06;;;;;;;30.85;12.90;;;5.10;99.90;;;;;;4974808;28;20053;-95
2021/12/05 18:57:39;;;;;;;25.92;11.70;;;5.10;99.90;;;;;;4978657;28;20415;-91
2021/12/05 19:00:13;;;;;;;29.40;16.52;;;5.10;99.90;;;;;;4970860;28;20050;-94
2021/12/05 19:05:45;;;;;;;28.08;14.20;;;5.10;99.90;;;;;;4963225;28;20056;-93
2021/12/05 19:13:26;;;;;;;24.65;13.05;;;5.10;99.90;;;;;;4970837;28;20559;-94
2021/12/05 19:15:53;;;;;;;40.72;31.48;;;5.10;99.90;;;;;;4962551;28;20050;-92
2021/12/05 19:18:19;;;;;;;40.58;31.88;;;5.10;99.90;;;;;;4965980;28;20050;-93
2021/12/05 19:20:46;;;;;;;27.25;12.77;;;5.20;99.90;;;;;;4975113;28;20050;-93
2021/12/05 19:23:12;;;;;;;28.70;13.60;;;5.10;99.90;;;;;;4973843;28;20050;-93
2021/12/05 19:25:39;;;;;;;24.85;12.55;;;5.00;99.90;;;;;;4964380;28;20130;-95
2021/12/05 19:28:27;;;;;;;29.10;13.73;;;5.00;99.90;;;;;;4967522;28;20058;-94
2021/12/05 19:30:55;;;;;;;45.13;33.28;;;5.00;99.90;;;;;;4968188;28;20082;-93
2021/12/05 19:33:24;;;;;;;31.17;11.95;;;5.00;99.90;;;;;;4962411;28;20038;-93
2021/12/05 19:35:51;;;;;;;24.48;13.68;;;5.00;99.90;;;;;;4963145;28;20399;-93
2021/12/05 19:38:23;;;;;;;42.00;31.70;;;5.00;99.90;;;;;;4966436;28;20030;-95
2021/12/05 19:40:49;;;;;;;43.95;32.47;;;5.00;99.90;;;;;;4963437;28;20062;-94
2021/12/05 19:43:17;;;;;;;27.05;12.75;;;5.00;99.90;;;;;;4960815;28;20051;-92
2021/12/05 19:45:43;;;;;;;31.13;12.80;;;4.90;99.90;;;;;;4961401;28;20042;-93
2021/12/05 19:48:09;;;;;;;40.72;31.88;;;4.90;99.90;;;;;;4967935;28;20046;-92
2021/12/05 19:50:40;;;;;;;27.00;11.65;;;4.90;99.90;;;;;;4950060;28;20050;-92
2021/12/05 19:53:06;;;;;;;27.80;12.18;;;5.00;99.90;;;;;;4960690;28;20734;-91
2021/12/05 19:55:32;;;;;;;23.10;11.18;;;4.80;99.90;;;;;;4962927;28;20050;-92
2021/12/05 19:57:59;;;;;;;25.25;11.90;;;4.70;99.90;;;;;;4966666;28;20049;-95
2021/12/05 20:00:29;;;;;;;37.72;29.92;;;4.60;99.90;;;;;;4965078;28;20042;-94
2021/12/05 20:02:55;;;;;;;24.25;11.48;;;4.70;99.90;;;;;;4969904;28;20093;-92
2021/12/05 20:05:25;;;;;;;25.67;10.90;;;4.70;99.90;;;;;;4965736;28;20046;-95
2021/12/05 20:07:52;;;;;;;22.83;11.85;;;4.60;99.90;;;;;;4990453;28;20047;-96
2021/12/05 20:10:23;;;;;;;23.45;12.25;;;4.50;99.90;;;;;;4966919;28;20047;-94
2021/12/05 20:12:49;;;;;;;22.77;11.25;;;4.50;99.90;;;;;;4970119;28;20894;-92
2021/12/05 20:15:15;;;;;;;26.60;11.15;;;4.40;99.90;;;;;;4954850;28;20054;-95
2021/12/05 20:17:41;;;;;;;23.35;11.85;;;4.40;99.90;;;;;;4966658;28;20744;-94
2021/12/05 20:20:09;;;;;;;28.98;12.70;;;4.40;99.90;;;;;;4973447;28;20530;-94
2021/12/05 20:22:36;;;;;;;24.60;12.20;;;4.30;99.90;;;;;;4974375;28;20047;-92
2021/12/05 20:25:04;;;;;;;35.20;28.15;;;4.20;99.90;;;;;;4984174;28;20039;-92
2021/12/05 20:27:37;;;;;;;25.63;12.02;;;4.30;99.90;;;;;;4974637;28;20092;-95
2021/12/05 20:30:05;;;;;;;22.13;10.60;;;4.20;99.90;;;;;;4956709;28;20046;-95
2021/12/05 20:32:31;;;;;;;23.25;10.63;;;4.10;99.90;;;;;;4966006;28;20047;-94
2021/12/05 20:34:57;;;;;;;21.25;10.07;;;4.20;99.90;;;;;;5028359;23;20045;-96
2021/12/05 20:37:22;;;;;;;34.15;27.40;;;4.10;99.90;;;;;;4991524;28;20057;-93
2021/12/05 20:39:48;;;;;;;24.17;10.02;;;4.10;99.90;;;;;;4996362;28;20144;-95
2021/12/05 20:42:14;;;;;;;19.52;8.48;;;4.00;99.90;;;;;;4999436;28;20013;-96
2021/12/05 20:44:46;;;;;;;19.63;8.20;;;4.00;99.90;;;;;;4996738;28;20046;-94
2021/12/05 20:47:12;;;;;;;21.20;9.57;;;3.90;99.90;;;;;;4993272;28;20057;-93
2021/12/05 20:49:37;;;;;;;20.83;8.48;;;3.90;99.90;;;;;;5003680;28;20044;-94
2021/12/05 20:52:04;;;;;;;19.83;9.32;;;3.80;99.90;;;;;;5029098;28;20057;-96
2021/12/05 20:54:34;;;;;;;22.15;9.13;;;3.80;99.90;;;;;;5000713;28;20049;-96
2021/12/05 20:57:04;;;;;;;19.87;8.43;;;3.70;99.90;;;;;;5002260;28;20046;-96
2021/12/05 20:59:30;;;;;;;32.85;24.38;;;3.60;99.90;;;;;;5007025;28;20287;-94
2021/12/05 21:01:56;;;;;;;20.80;8.25;;;3.70;99.90;;;;;;4999484;28;20049;-95
2021/12/05 21:04:22;;;;;;;20.98;8.40;;;3.70;99.90;;;;;;4999202;28;20041;-94
2021/12/05 21:06:48;;;;;;;22.13;9.07;;;3.70;99.90;;;;;;5013647;28;20064;-94
2021/12/05 21:09:14;;;;;;;19.58;9.07;;;3.60;99.90;;;;;;5028465;28;20045;-95
2021/12/05 21:11:40;;;;;;;25.13;11.02;;;3.60;99.90;;;;;;5014539;28;20114;-94
2021/12/05 21:14:05;;;;;;;21.70;10.50;;;3.60;99.90;;;;;;5000705;28;20106;-92
2021/12/05 21:16:31;;;;;;;24.73;11.07;;;3.60;99.90;;;;;;4998267;28;20068;-96
2021/12/05 21:18:57;;;;;;;25.50;11.38;;;3.60;99.90;;;;;;5011482;28;20029;-96
2021/12/05 21:21:25;;;;;;;24.63;10.30;;;3.60;99.90;;;;;;5008099;28;20029;-95
2021/12/05 21:23:52;;;;;;;27.23;13.23;;;3.60;99.90;;;;;;5007628;28;20045;-96
2021/12/05 21:26:19;;;;;;;24.17;10.77;;;3.50;99.90;;;;;;5014135;28;20038;-94
2021/12/05 21:28:44;;;;;;;31.08;13.40;;;3.60;99.90;;;;;;5003122;28;20046;-95
2021/12/05 21:31:12;;;;;;;26.98;11.60;;;3.50;99.90;;;;;;4998151;28;20397;-95
2021/12/05 21:33:38;;;;;;;23.73;10.65;;;3.50;99.90;;;;;;5002403;28;20075;-95
2021/12/05 21:36:06;;;;;;;24.63;11.30;;;3.50;99.90;;;;;;5010712;28;20088;-95
2021/12/05 21:38:32;;;;;;;21.23;9.48;;;3.50;99.90;;;;;;4993457;28;20119;-93
2021/12/05 21:41:03;;;;;;;25.75;11.25;;;3.40;99.90;;;;;;5006737;28;20455;-92
2021/12/05 21:43:30;;;;;;;26.75;11.00;;;3.40;99.90;;;;;;4994729;28;20458;-92
2021/12/05 21:45:57;;;;;;;25.75;10.93;;;3.50;99.90;;;;;;4996399;28;20106;-95
2021/12/05 21:48:23;;;;;;;22.90;10.30;;;3.40;99.90;;;;;;4993572;28;20053;-94
2021/12/05 21:50:51;;;;;;;22.73;10.25;;;3.40;99.90;;;;;;4992282;28;20053;-93
2021/12/05 21:53:20;;;;;;;20.85;9.55;;;3.40;99.90;;;;;;5012315;28;20040;-93
2021/12/05 21:55:53;;;;;;;22.70;10.73;;;3.40;99.90;;;;;;4997968;28;20046;-93
2021/12/05 21:58:19;;;;;;;22.15;10.00;;;3.40;99.90;;;;;;5000641;28;20049;-92
2021/12/05 22:00:47;;;;;;;25.42;10.65;;;3.30;99.90;;;;;;5004436;28;20145;-93
2021/12/05 22:03:14;;;;;;;21.75;10.00;;;3.30;99.90;;;;;;4998955;28;20402;-93
2021/12/05 22:05:42;;;;;;;38.70;30.15;;;3.30;99.90;;;;;;5011251;28;20100;-93
2021/12/05 22:08:08;;;;;;;25.13;12.70;;;3.40;99.90;;;;;;5007495;28;20042;-93
2021/12/05 22:10:34;;;;;;;20.80;10.13;;;3.40;99.90;;;;;;5010257;28;20045;-92
2021/12/05 22:13:00;;;;;;;25.13;11.15;;;3.40;99.90;;;;;;5010921;28;20045;-94
2021/12/05 22:15:29;;;;;;;20.30;9.02;;;3.40;99.90;;;;;;4991528;28;20064;-94
2021/12/05 22:17:55;;;;;;;22.33;9.63;;;3.40;99.90;;;;;;4993282;28;20524;-94
2021/12/05 22:20:26;;;;;;;26.17;11.18;;;3.40;99.90;;;;;;4991578;28;20037;-93
2021/12/05 22:22:59;;;;;;;23.98;10.52;;;3.40;99.90;;;;;;4998780;28;20060;-95
2021/12/05 22:25:28;;;;;;;22.65;11.27;;;3.30;99.90;;;;;;4999946;28;20049;-94